createdAt,value
2019-04-21T00:00:52.379Z,16.20
2019-04-21T00:03:26.055Z,16.20
2019-04-21T00:06:08.929Z,16.10
2019-04-21T00:08:44.158Z,16.20
2019-04-21T00:11:18.431Z,16.20
2019-04-21T00:13:39.673Z,16.10
2019-04-21T00:16:00.293Z,16.10
2019-04-21T00:18:50.629Z,16.10
2019-04-21T00:21:25.591Z,16.10
2019-04-21T00:24:00.331Z,16.00
2019-04-21T00:26:42.197Z,16.00
2019-04-21T00:29:22.565Z,16.10
2019-04-21T00:31:39.353Z,16.10
2019-04-21T00:33:55.464Z,16.10
2019-04-21T00:36:39.653Z,16.10
2019-04-21T00:39:34.457Z,16.00
2019-04-21T00:41:54.686Z,16.00
2019-04-21T00:44:14.273Z,16.00
2019-04-21T00:46:51.724Z,16.00
2019-04-21T00:49:24.322Z,16.00
2019-04-21T00:52:14.577Z,16.00
2019-04-21T00:54:58.609Z,16.00
2019-04-21T00:57:26.547Z,16.00
2019-04-21T00:59:55.663Z,15.90
2019-04-21T01:02:27.996Z,15.90
2019-04-21T01:05:01.716Z,15.90
2019-04-21T01:07:26.767Z,15.90
2019-04-21T01:09:48.509Z,16.00
2019-04-21T01:12:34.968Z,15.90
2019-04-21T01:15:04.744Z,16.00
2019-04-21T01:17:35.715Z,16.00
2019-04-21T01:19:59.964Z,15.90
2019-04-21T01:22:15.348Z,15.80
2019-04-21T01:24:49.119Z,15.80
2019-04-21T01:27:39.774Z,15.80
2019-04-21T01:30:14.332Z,15.70
2019-04-21T01:32:46.242Z,15.70
2019-04-21T01:35:15.070Z,15.60
2019-04-21T01:37:49.570Z,15.60
2019-04-21T01:40:23.135Z,15.50
2019-04-21T01:42:48.083Z,15.50
2019-04-21T01:45:27.971Z,15.40
2019-04-21T01:48:01.202Z,15.30
2019-04-21T01:50:30.062Z,15.30
2019-04-21T01:53:10.924Z,15.20
2019-04-21T01:55:52.534Z,15.20
2019-04-21T01:58:15.996Z,15.20
2019-04-21T02:00:57.355Z,15.20
2019-04-21T02:03:46.680Z,15.20
2019-04-21T02:06:14.948Z,15.30
2019-04-21T02:08:34.694Z,15.30
2019-04-21T02:11:11.201Z,15.20
2019-04-21T02:13:48.886Z,15.20
2019-04-21T02:16:12.427Z,15.30
2019-04-21T02:18:46.435Z,15.40
2019-04-21T02:21:04.381Z,15.30
2019-04-21T02:23:54.351Z,15.30
2019-04-21T02:26:22.862Z,15.30
2019-04-21T02:28:58.597Z,15.30
2019-04-21T02:31:40.456Z,15.30
2019-04-21T02:34:17.000Z,15.20
2019-04-21T02:39:15.113Z,15.10
2019-04-21T02:41:54.618Z,15.10
2019-04-21T02:46:42.545Z,15.00
2019-04-21T02:49:22.446Z,14.80
2019-04-21T02:54:45.729Z,14.70
2019-04-21T02:57:04.664Z,14.60
2019-04-21T02:59:23.352Z,14.70
2019-04-21T03:02:25.792Z,14.60
2019-04-21T03:05:02.413Z,14.60
2019-04-21T03:07:32.227Z,14.60
2019-04-21T03:10:04.817Z,14.60
2019-04-21T03:12:32.014Z,14.60
2019-04-21T03:20:08.853Z,14.50
2019-04-21T03:22:42.314Z,14.50
2019-04-21T03:25:25.108Z,14.60
2019-04-21T03:27:57.370Z,14.50
2019-04-21T03:37:54.410Z,14.50
2019-04-21T03:40:30.269Z,14.60
2019-04-21T03:42:59.781Z,14.60
2019-04-21T03:45:32.137Z,14.70
2019-04-21T03:48:05.262Z,14.70
2019-04-21T03:50:33.517Z,14.70
2019-04-21T03:53:03.469Z,14.60
2019-04-21T04:01:00.653Z,14.50
2019-04-21T04:06:40.274Z,14.50
2019-04-21T04:11:58.052Z,14.30
2019-04-21T04:19:26.394Z,14.10
2019-04-21T04:21:57.094Z,14.00
2019-04-21T04:26:59.511Z,13.80
2019-04-21T04:32:18.113Z,13.80
2019-04-21T04:34:49.924Z,13.80
2019-04-21T04:37:15.511Z,13.80
2019-04-21T04:45:05.854Z,13.90
2019-04-21T04:47:43.074Z,13.90
2019-04-21T04:50:22.565Z,13.90
2019-04-21T04:55:08.571Z,14.00
2019-04-21T04:57:49.186Z,14.00
2019-04-21T05:02:42.377Z,14.00
2019-04-21T05:10:18.731Z,13.80
2019-04-21T05:12:45.784Z,13.80
2019-04-21T05:15:12.653Z,13.70
2019-04-21T05:18:10.846Z,13.70
2019-04-21T05:20:17.061Z,13.60
2019-04-21T05:22:47.413Z,13.50
2019-04-21T05:25:13.186Z,13.50
2019-04-21T05:27:45.142Z,13.50
2019-04-21T05:30:28.492Z,13.50
2019-04-21T05:33:01.410Z,13.50
2019-04-21T05:35:45.173Z,13.40
2019-04-21T05:38:16.780Z,13.40
2019-04-21T05:40:44.116Z,13.50
2019-04-21T05:43:28.554Z,13.60
2019-04-21T05:46:02.562Z,13.60
2019-04-21T05:48:36.420Z,13.70
2019-04-21T05:50:58.933Z,13.70
2019-04-21T05:53:48.048Z,13.70
2019-04-21T05:56:14.197Z,13.70
2019-04-21T05:58:39.166Z,13.80
2019-04-21T06:01:23.895Z,13.70
2019-04-21T06:06:22.069Z,13.70
2019-04-21T06:08:44.970Z,13.80
2019-04-21T06:11:19.191Z,13.80
2019-04-21T06:13:54.987Z,13.90
2019-04-21T06:16:43.905Z,14.10
2019-04-21T06:21:28.163Z,14.30
2019-04-21T06:23:57.319Z,14.40
2019-04-21T06:28:56.615Z,14.50
2019-04-21T06:34:04.723Z,14.70
2019-04-21T06:41:58.531Z,14.90
2019-04-21T06:46:47.020Z,15.00
2019-04-21T06:49:13.162Z,15.10
2019-04-21T06:51:49.770Z,15.20
2019-04-21T06:54:22.007Z,15.20
2019-04-21T06:56:51.741Z,15.30
2019-04-21T06:59:29.420Z,15.30
2019-04-21T07:04:31.253Z,15.50
2019-04-21T07:06:59.279Z,15.60
2019-04-21T07:09:31.180Z,15.70
2019-04-21T07:12:00.013Z,15.80
2019-04-21T07:14:32.021Z,15.90
2019-04-21T07:17:15.922Z,16.10
2019-04-21T07:19:46.266Z,16.20
2019-04-21T07:22:12.636Z,16.40
2019-04-21T07:24:43.344Z,16.50
2019-04-21T07:27:15.576Z,16.70
2019-04-21T07:29:47.522Z,16.80
2019-04-21T07:32:14.883Z,16.90
2019-04-21T07:34:52.263Z,17.00
2019-04-21T07:37:23.970Z,17.10
2019-04-21T07:39:53.130Z,17.10
2019-04-21T07:42:20.826Z,17.20
2019-04-21T07:44:53.557Z,17.30
2019-04-21T07:47:32.752Z,17.40
2019-04-21T07:50:08.847Z,17.40
2019-04-21T07:53:05.153Z,17.40
2019-04-21T07:58:02.577Z,17.50
2019-04-21T08:00:36.327Z,17.60
2019-04-21T08:03:12.842Z,17.70
2019-04-21T08:05:58.633Z,17.80
2019-04-21T08:08:01.566Z,17.90
2019-04-21T08:10:47.517Z,18.00
2019-04-21T08:13:25.175Z,18.10
2019-04-21T08:16:07.344Z,18.10
2019-04-21T08:18:20.424Z,18.20
2019-04-21T08:20:47.984Z,18.20
2019-04-21T08:23:25.614Z,18.40
2019-04-21T08:26:01.114Z,18.50
2019-04-21T08:28:27.627Z,18.50
2019-04-21T08:31:04.838Z,18.70
2019-04-21T08:33:47.019Z,18.70
2019-04-21T08:38:34.479Z,19.00
2019-04-21T08:43:40.672Z,19.10
2019-04-21T08:46:09.695Z,19.20
2019-04-21T08:48:43.941Z,19.30
2019-04-21T08:51:21.035Z,19.40
2019-04-21T08:53:49.027Z,19.40
2019-04-21T08:56:37.208Z,19.60
2019-04-21T08:59:13.848Z,19.60
2019-04-21T09:01:47.405Z,19.80
2019-04-21T09:04:21.694Z,19.90
2019-04-21T09:06:59.164Z,20.00
2019-04-21T09:09:22.411Z,20.00
2019-04-21T09:11:58.010Z,20.10
2019-04-21T09:14:30.915Z,20.10
2019-04-21T09:16:56.554Z,20.00
2019-04-21T09:19:44.462Z,20.00
2019-04-21T09:22:02.218Z,20.00
2019-04-21T09:24:33.365Z,20.10
2019-04-21T09:27:07.116Z,20.20
2019-04-21T09:29:28.432Z,20.40
2019-04-21T09:31:55.766Z,20.50
2019-04-21T09:34:30.564Z,20.50
2019-04-21T09:37:12.728Z,20.50
2019-04-21T09:39:29.670Z,20.50
2019-04-21T09:42:02.449Z,20.40
2019-04-21T09:44:36.576Z,20.40
2019-04-21T09:47:05.089Z,20.50
2019-04-21T09:49:41.887Z,20.70
2019-04-21T09:52:18.577Z,20.90
2019-04-21T09:54:52.047Z,21.00
2019-04-21T09:57:27.641Z,21.10
2019-04-21T09:59:55.729Z,21.30
2019-04-21T10:02:31.183Z,21.50
2019-04-21T10:04:50.646Z,21.50
2019-04-21T10:07:27.459Z,21.50
2019-04-21T10:09:52.544Z,21.60
2019-04-21T10:12:23.517Z,21.70
2019-04-21T10:14:53.518Z,21.80
2019-04-21T10:17:37.457Z,21.90
2019-04-21T10:20:11.666Z,21.90
2019-04-21T10:22:41.887Z,22.00
2019-04-21T10:25:12.567Z,22.00
2019-04-21T10:27:43.157Z,22.10
2019-04-21T10:30:16.054Z,22.30
2019-04-21T10:32:46.254Z,22.50
2019-04-21T10:35:20.086Z,22.50
2019-04-21T10:38:02.737Z,22.60
2019-04-21T10:40:21.230Z,22.60
2019-04-21T10:42:52.267Z,22.70
2019-04-21T10:45:23.072Z,22.60
2019-04-21T10:47:54.727Z,22.50
2019-04-21T10:50:24.963Z,22.60
2019-04-21T10:53:00.701Z,22.90
2019-04-21T10:55:48.950Z,23.00
2019-04-21T10:58:06.519Z,23.30
2019-04-21T11:00:39.859Z,23.40
2019-04-21T11:03:29.102Z,23.10
2019-04-21T11:06:03.316Z,23.20
2019-04-21T11:08:37.922Z,23.20
2019-04-21T11:11:05.792Z,23.70
2019-04-21T11:13:36.921Z,23.60
2019-04-21T11:16:07.111Z,23.30
2019-04-21T11:18:37.784Z,23.20
2019-04-21T11:21:09.245Z,23.30
2019-04-21T11:23:40.484Z,23.50
2019-04-21T11:26:12.024Z,23.50
2019-04-21T11:28:43.064Z,23.40
2019-04-21T11:31:13.366Z,23.40
2019-04-21T11:33:45.090Z,23.70
2019-04-21T11:36:15.587Z,23.90
2019-04-21T11:39:06.138Z,24.10
2019-04-21T11:41:25.680Z,24.40
2019-04-21T11:43:57.099Z,24.50
2019-04-21T11:46:28.559Z,25.30
2019-04-21T11:48:59.748Z,26.50
2019-04-21T11:51:31.038Z,26.50
2019-04-21T11:54:02.170Z,26.90
2019-04-21T11:56:34.720Z,26.30
2019-04-21T11:59:05.868Z,26.40
2019-04-21T12:01:37.049Z,27.70
2019-04-21T12:04:07.610Z,27.20
2019-04-21T12:06:41.798Z,27.00
2019-04-21T12:09:10.062Z,26.60
2019-04-21T12:11:41.151Z,26.10
2019-04-21T12:14:12.068Z,26.00
2019-04-21T12:16:43.273Z,26.30
2019-04-21T12:19:14.577Z,26.30
2019-04-21T12:21:53.535Z,26.90
2019-04-21T12:24:17.387Z,27.10
2019-04-21T12:26:47.583Z,27.40
2019-04-21T12:29:18.915Z,27.20
2019-04-21T12:31:57.256Z,27.00
2019-04-21T12:34:28.035Z,26.70
2019-04-21T12:36:59.175Z,26.60
2019-04-21T12:39:30.542Z,26.50
2019-04-21T12:42:00.807Z,26.50
2019-04-21T12:44:31.661Z,26.80
2019-04-21T12:47:01.749Z,27.50
2019-04-21T12:49:31.878Z,27.70
2019-04-21T12:52:01.949Z,27.60
2019-04-21T12:54:33.359Z,27.20
2019-04-21T12:57:03.504Z,26.80
2019-04-21T12:59:34.562Z,26.50
2019-04-21T13:02:05.378Z,26.60
2019-04-21T13:04:35.826Z,26.80
2019-04-21T13:07:05.892Z,27.10
2019-04-21T13:09:37.469Z,27.40
2019-04-21T13:12:08.881Z,27.90
2019-04-21T13:14:39.900Z,28.50
2019-04-21T13:17:10.076Z,29.40
2019-04-21T13:19:41.266Z,29.60
2019-04-21T13:22:12.186Z,29.30
2019-04-21T13:24:42.276Z,29.30
2019-04-21T13:27:12.762Z,28.80
2019-04-21T13:29:44.082Z,29.20
2019-04-21T13:32:14.517Z,28.90
2019-04-21T13:34:46.046Z,28.50
2019-04-21T13:37:17.577Z,27.90
2019-04-21T13:40:14.621Z,27.40
2019-04-21T13:42:40.005Z,26.90
2019-04-21T13:45:08.222Z,26.60
2019-04-21T13:47:40.660Z,26.30
2019-04-21T13:50:11.164Z,26.20
2019-04-21T13:52:42.617Z,25.60
2019-04-21T13:55:13.916Z,25.20
2019-04-21T13:57:44.431Z,24.70
2019-04-21T14:00:15.227Z,24.60
2019-04-21T14:02:54.582Z,24.50
2019-04-21T14:05:24.763Z,24.40
2019-04-21T14:07:56.218Z,24.30
2019-04-21T14:10:26.693Z,24.30
2019-04-21T14:12:58.286Z,24.10
2019-04-21T14:15:28.517Z,24.10
2019-04-21T14:18:00.577Z,24.10
2019-04-21T14:20:31.185Z,24.10
2019-04-21T14:23:13.499Z,24.10
2019-04-21T14:25:33.274Z,24.10
2019-04-21T14:28:04.036Z,24.10
2019-04-21T14:30:34.635Z,24.00
2019-04-21T14:33:04.785Z,23.90
2019-04-21T14:35:34.931Z,23.80
2019-04-21T14:38:05.086Z,23.80
2019-04-21T14:40:37.050Z,23.70
2019-04-21T14:43:08.036Z,23.80
2019-04-21T14:45:40.796Z,23.80
2019-04-21T14:48:29.544Z,23.80
2019-04-21T14:51:07.351Z,23.80
2019-04-21T14:53:57.343Z,23.70
2019-04-21T14:56:27.515Z,23.70
2019-04-21T14:58:59.088Z,23.60
2019-04-21T15:01:29.296Z,23.60
2019-04-21T15:04:03.771Z,23.60
2019-04-21T15:06:37.110Z,23.60
2019-04-21T15:09:09.330Z,23.60
2019-04-21T15:11:40.098Z,23.50
2019-04-21T15:14:11.586Z,23.50
2019-04-21T15:16:42.812Z,23.50
2019-04-21T15:19:12.923Z,23.40
2019-04-21T15:21:42.954Z,23.40
2019-04-21T15:24:14.239Z,23.30
2019-04-21T15:26:46.405Z,23.30
2019-04-21T15:29:17.108Z,23.30
2019-04-21T15:31:48.308Z,23.40
2019-04-21T15:34:19.249Z,23.30
2019-04-21T15:36:50.345Z,23.30
2019-04-21T15:39:21.506Z,23.30
2019-04-21T15:41:52.517Z,23.30
2019-04-21T15:44:22.852Z,23.30
2019-04-21T15:46:53.392Z,23.20
2019-04-21T15:49:23.399Z,23.20
2019-04-21T15:51:53.833Z,23.10
2019-04-21T15:54:24.731Z,23.10
2019-04-21T15:57:00.627Z,23.10
2019-04-21T15:59:38.086Z,23.10
2019-04-21T16:02:26.576Z,23.10
2019-04-21T16:04:56.858Z,23.00
2019-04-21T16:07:26.972Z,23.00
2019-04-21T16:09:57.723Z,22.90
2019-04-21T16:12:27.825Z,22.90
2019-04-21T16:14:58.778Z,22.80
2019-04-21T16:17:29.604Z,22.70
2019-04-21T16:19:59.797Z,22.70
2019-04-21T16:22:32.653Z,22.70
2019-04-21T16:25:03.378Z,22.60
2019-04-21T16:27:35.045Z,22.60
2019-04-21T16:30:08.001Z,22.50
2019-04-21T16:32:38.381Z,22.40
2019-04-21T16:35:11.091Z,22.40
2019-04-21T16:37:41.580Z,22.30
2019-04-21T16:40:11.871Z,22.30
2019-04-21T16:42:42.531Z,22.30
2019-04-21T16:45:13.115Z,22.20
2019-04-21T16:47:44.159Z,22.20
2019-04-21T16:50:15.892Z,22.10
2019-04-21T16:53:03.672Z,22.10
2019-04-21T16:55:37.157Z,22.00
2019-04-21T16:58:15.274Z,22.00
2019-04-21T17:00:51.227Z,21.90
2019-04-21T17:03:14.724Z,21.90
2019-04-21T17:05:45.901Z,21.80
2019-04-21T17:08:15.855Z,21.70
2019-04-21T17:10:59.162Z,21.70
2019-04-21T17:13:18.263Z,21.70
2019-04-21T17:16:07.768Z,21.60
2019-04-21T17:18:33.364Z,21.60
2019-04-21T17:20:56.191Z,21.60
2019-04-21T17:23:25.151Z,21.50
2019-04-21T17:25:55.366Z,21.40
2019-04-21T17:28:25.739Z,21.40
2019-04-21T17:30:55.884Z,21.30
2019-04-21T17:33:28.375Z,21.20
2019-04-21T17:35:58.706Z,21.20
2019-04-21T17:38:30.064Z,21.10
2019-04-21T17:41:15.612Z,21.10
2019-04-21T17:43:35.444Z,21.00
2019-04-21T17:46:06.802Z,20.90
2019-04-21T17:48:36.936Z,20.90
2019-04-21T17:51:09.540Z,20.80
2019-04-21T17:53:47.771Z,20.80
2019-04-21T17:56:47.802Z,20.70
2019-04-21T17:59:04.432Z,20.70
2019-04-21T18:01:39.356Z,20.60
2019-04-21T18:04:10.832Z,20.60
2019-04-21T18:06:52.712Z,20.50
2019-04-21T18:09:38.573Z,20.50
2019-04-21T18:11:59.443Z,20.50
2019-04-21T18:14:13.811Z,20.40
2019-04-21T18:16:47.874Z,20.30
2019-04-21T18:19:19.351Z,20.30
2019-04-21T18:21:59.537Z,20.20
2019-04-21T18:24:40.678Z,20.20
2019-04-21T18:27:04.276Z,20.10
2019-04-21T18:29:33.961Z,20.00
2019-04-21T18:32:04.216Z,19.90
2019-04-21T18:34:43.987Z,19.90
2019-04-21T18:37:32.669Z,19.80
2019-04-21T18:40:05.320Z,19.80
2019-04-21T18:42:47.886Z,19.70
2019-04-21T18:48:07.901Z,19.60
2019-04-21T18:50:52.556Z,19.60
2019-04-21T18:53:44.878Z,19.50
2019-04-21T18:56:07.427Z,19.40
2019-04-21T18:58:36.120Z,19.40
2019-04-21T19:01:12.621Z,19.30
2019-04-21T19:03:43.087Z,19.30
2019-04-21T19:06:16.461Z,19.20
2019-04-21T19:11:28.132Z,19.10
2019-04-21T19:14:28.938Z,19.10
2019-04-21T19:16:49.848Z,19.00
2019-04-21T19:21:49.857Z,18.90
2019-04-21T19:24:45.673Z,18.90
2019-04-21T19:26:58.803Z,18.80
2019-04-21T19:31:54.910Z,18.80
2019-04-21T19:34:18.665Z,18.70
2019-04-21T19:36:51.267Z,18.70
2019-04-21T19:39:25.836Z,18.70
2019-04-21T19:41:58.579Z,18.60
2019-04-21T19:44:36.035Z,18.60
2019-04-21T19:47:10.757Z,18.60
2019-04-21T19:49:45.521Z,18.60
2019-04-21T19:52:02.944Z,18.50
2019-04-21T19:54:32.023Z,18.50
2019-04-21T19:56:55.826Z,18.40
2019-04-21T19:59:34.890Z,18.40
2019-04-21T20:01:58.300Z,18.40
2019-04-21T20:04:34.087Z,18.30
2019-04-21T20:07:10.325Z,18.20
2019-04-21T20:09:47.792Z,18.20
2019-04-21T20:12:29.851Z,18.10
2019-04-21T20:14:59.329Z,18.00
2019-04-21T20:17:17.625Z,18.00
2019-04-21T20:19:42.347Z,17.90
2019-04-21T20:22:14.725Z,17.90
2019-04-21T20:24:53.283Z,17.90
2019-04-21T20:27:24.141Z,17.90
2019-04-21T20:30:10.931Z,17.90
2019-04-21T20:32:38.276Z,17.80
2019-04-21T20:35:14.396Z,17.70
2019-04-21T20:37:41.894Z,17.60
2019-04-21T20:40:02.265Z,17.60
2019-04-21T20:42:44.102Z,17.60
2019-04-21T20:45:30.722Z,17.50
2019-04-21T20:47:37.759Z,17.50
2019-04-21T20:50:16.157Z,17.50
2019-04-21T20:52:55.211Z,17.50
2019-04-21T20:55:16.722Z,17.40
2019-04-21T20:57:51.470Z,17.30
2019-04-21T21:00:32.299Z,17.30
2019-04-21T21:03:07.076Z,17.40
2019-04-21T21:05:30.567Z,17.30
2019-04-21T21:08:13.710Z,17.30
2019-04-21T21:10:38.635Z,17.20
2019-04-21T21:13:20.568Z,17.20
2019-04-21T21:15:51.390Z,17.10
2019-04-21T21:18:26.773Z,17.10
2019-04-21T21:20:49.779Z,17.00
2019-04-21T21:23:14.461Z,16.90
2019-04-21T21:26:04.744Z,16.90
2019-04-21T21:28:24.204Z,16.90
2019-04-21T21:30:52.841Z,16.90
2019-04-21T21:33:22.538Z,16.90
2019-04-21T21:35:56.633Z,16.80
2019-04-21T21:38:30.795Z,16.70
2019-04-21T21:40:57.026Z,16.70
2019-04-21T21:43:23.075Z,16.60
2019-04-21T21:45:55.632Z,16.60
2019-04-21T21:48:39.540Z,16.60
2019-04-21T21:51:04.379Z,16.60
2019-04-21T21:53:28.617Z,16.60
2019-04-21T21:55:58.564Z,16.60
2019-04-21T21:58:36.442Z,16.40
2019-04-21T22:01:04.527Z,16.40
2019-04-21T22:03:38.926Z,16.40
2019-04-21T22:06:09.927Z,16.30
2019-04-21T22:08:36.545Z,16.30
2019-04-21T22:11:07.239Z,16.30
2019-04-21T22:13:49.098Z,16.30
2019-04-21T22:16:14.397Z,16.30
2019-04-21T22:19:04.714Z,16.20
2019-04-21T22:21:36.583Z,16.20
2019-04-21T22:23:57.072Z,16.20
2019-04-21T22:26:18.958Z,16.20
2019-04-21T22:28:49.699Z,16.20
2019-04-21T22:31:25.338Z,16.10
2019-04-21T22:33:55.729Z,16.10
2019-04-21T22:36:36.621Z,16.10
2019-04-21T22:39:15.074Z,16.10
2019-04-21T22:41:34.606Z,16.10
2019-04-21T22:43:59.375Z,16.10
2019-04-21T22:46:30.727Z,16.10
2019-04-21T22:49:06.814Z,16.10
2019-04-21T22:51:39.353Z,16.20
2019-04-21T22:54:04.228Z,16.10
2019-04-21T22:56:36.119Z,16.10
2019-04-21T22:59:10.991Z,16.10
2019-04-21T23:01:42.464Z,16.00
2019-04-21T23:04:10.673Z,16.00
2019-04-21T23:06:42.679Z,16.00
2019-04-21T23:09:13.294Z,16.00
2019-04-21T23:11:49.190Z,16.00
2019-04-21T23:14:17.535Z,16.00
2019-04-21T23:16:53.630Z,16.00
2019-04-21T23:19:32.153Z,16.00
2019-04-21T23:22:09.526Z,16.00
2019-04-21T23:24:45.511Z,16.00
2019-04-21T23:27:09.993Z,16.00
2019-04-21T23:29:57.029Z,16.00
2019-04-21T23:32:13.116Z,16.00
2019-04-21T23:34:36.088Z,16.00
2019-04-21T23:37:10.122Z,15.90
2019-04-21T23:39:37.019Z,15.80
2019-04-21T23:42:06.383Z,15.80
2019-04-21T23:44:41.813Z,15.90
2019-04-21T23:47:11.785Z,15.80
2019-04-21T23:49:51.078Z,15.80
2019-04-21T23:52:15.666Z,15.70
2019-04-21T23:54:45.267Z,15.70
2019-04-21T23:57:24.981Z,15.70
2019-04-21T23:59:51.889Z,15.70
